Time;durP1;ratioP1;P1;durP2;ratioP2;P2;SDS_P1;SDS_P2;PMS_P1;PMS_P2;Temp;Humidity;BMP_temperature;BMP_pressure;BME280_temperature;BME280_humidity;BME280_pressure;Samples;Min_cycle;Max_cycle;Signal;HPM_P1;HPM_P2
2023/05/09 00:00:30;;;;;;;13.83;12.43;;;13.00;99.90;;;;;;6312757;28;20466;-61
2023/05/09 00:03:34;;;;;;;13.00;11.70;;;13.00;99.90;;;;;;6310435;28;20469;-61
2023/05/09 00:06:37;;;;;;;15.60;13.03;;;12.90;99.90;;;;;;6310757;28;20554;-62
2023/05/09 00:09:41;;;;;;;13.53;12.13;;;12.90;99.90;;;;;;6312567;28;20464;-62
2023/05/09 00:12:46;;;;;;;13.57;11.93;;;12.80;99.90;;;;;;6310013;28;20473;-61
2023/05/09 00:15:49;;;;;;;15.10;13.50;;;12.80;99.90;;;;;;6309827;28;20484;-62
2023/05/09 00:18:52;;;;;;;18.00;11.80;;;12.80;99.90;;;;;;6311519;28;20466;-62
2023/05/09 00:21:55;;;;;;;14.33;12.37;;;12.80;99.90;;;;;;6310706;28;20979;-62
2023/05/09 00:25:00;;;;;;;16.53;12.60;;;12.80;99.90;;;;;;6311026;28;20479;-62
2023/05/09 00:28:03;;;;;;;14.03;12.60;;;12.70;99.90;;;;;;6312130;28;20465;-62
2023/05/09 00:31:07;;;;;;;14.20;12.27;;;12.70;99.90;;;;;;6309351;28;20477;-61
2023/05/09 00:34:10;;;;;;;13.20;11.97;;;12.70;99.90;;;;;;6310682;28;20575;-61
2023/05/09 00:37:13;;;;;;;12.50;11.17;;;12.60;99.90;;;;;;6308537;28;20483;-62
2023/05/09 00:40:17;;;;;;;16.83;13.23;;;12.60;99.90;;;;;;6311633;28;20465;-62
2023/05/09 00:43:21;;;;;;;16.50;11.90;;;12.60;99.90;;;;;;6316696;28;20469;-62
2023/05/09 00:46:24;;;;;;;13.03;11.57;;;12.60;99.90;;;;;;6314521;28;20468;-61
2023/05/09 00:49:28;;;;;;;13.10;11.70;;;12.60;99.90;;;;;;6313888;28;20465;-62
2023/05/09 00:52:33;;;;;;;13.57;12.13;;;12.60;99.90;;;;;;6315819;28;20823;-62
2023/05/09 00:55:38;;;;;;;13.63;11.30;;;12.50;99.90;;;;;;6316085;28;21045;-63
2023/05/09 00:58:41;;;;;;;13.07;11.70;;;12.50;99.90;;;;;;6315902;28;20480;-63
2023/05/09 01:01:44;;;;;;;14.47;12.70;;;12.60;99.90;;;;;;6313909;28;20468;-62
2023/05/09 01:04:48;;;;;;;13.73;12.13;;;12.50;99.90;;;;;;6305448;28;20468;-63
2023/05/09 01:08:02;;;;;;;12.20;11.00;;;12.60;99.90;;;;;;6316128;28;20487;-62
2023/05/09 01:11:12;;;;;;;12.00;10.80;;;12.60;99.90;;;;;;6316353;28;20472;-63
2023/05/09 01:14:22;;;;;;;13.00;11.67;;;12.50;99.90;;;;;;6308998;28;20803;-62
2023/05/09 01:17:33;;;;;;;12.13;10.93;;;12.50;99.90;;;;;;6310028;28;20474;-62
2023/05/09 01:20:44;;;;;;;13.80;12.50;;;12.50;99.90;;;;;;6314411;28;20484;-62
2023/05/09 01:24:18;;;;;;;12.10;10.90;;;12.50;99.90;;;;;;6315428;28;20449;-62
2023/05/09 01:27:32;;;;;;;13.03;10.63;;;12.50;99.90;;;;;;6315874;28;20529;-62
2023/05/09 01:30:39;;;;;;;11.80;10.57;;;12.50;99.90;;;;;;6317605;28;20499;-62
2023/05/09 01:33:46;;;;;;;11.70;10.50;;;12.50;99.90;;;;;;6327054;28;20483;-62
2023/05/09 01:36:51;;;;;;;11.30;10.20;;;12.50;99.90;;;;;;6327110;28;20476;-62
2023/05/09 01:39:58;;;;;;;11.63;10.33;;;12.40;99.90;;;;;;6326649;28;20464;-62
2023/05/09 01:43:06;;;;;;;11.57;10.10;;;12.40;99.90;;;;;;6327043;28;20473;-62
2023/05/09 01:46:12;;;;;;;12.13;10.97;;;12.40;99.90;;;;;;6326919;28;20472;-62
2023/05/09 01:49:17;;;;;;;11.07;9.97;;;12.30;99.90;;;;;;6327089;28;20497;-62
2023/05/09 01:52:21;;;;;;;11.93;10.73;;;12.40;99.90;;;;;;6326640;28;20487;-62
2023/05/09 01:55:27;;;;;;;16.73;10.13;;;12.40;99.90;;;;;;6327819;28;20503;-62
2023/05/09 01:58:32;;;;;;;11.87;10.67;;;12.40;99.90;;;;;;6327180;28;20468;-62
2023/05/09 02:01:39;;;;;;;10.97;9.97;;;12.40;99.90;;;;;;6322620;28;20472;-62
2023/05/09 02:04:44;;;;;;;12.13;10.37;;;12.40;99.90;;;;;;6301836;28;20477;-63
2023/05/09 02:07:48;;;;;;;12.30;10.60;;;12.40;99.90;;;;;;6301615;28;20477;-62
2023/05/09 02:10:51;;;;;;;10.97;9.70;;;12.30;99.90;;;;;;6301727;28;20953;-62
2023/05/09 02:13:55;;;;;;;11.33;10.37;;;12.30;99.90;;;;;;6301664;28;20940;-62
2023/05/09 02:17:05;;;;;;;10.50;9.10;;;12.20;99.90;;;;;;6302259;28;20488;-62
2023/05/09 02:20:10;;;;;;;11.20;10.10;;;12.30;99.90;;;;;;6303050;28;20465;-62
2023/05/09 02:23:13;;;;;;;12.33;10.27;;;12.40;99.90;;;;;;6301483;28;20538;-62
2023/05/09 02:26:17;;;;;;;9.60;8.30;;;12.40;99.90;;;;;;6300933;28;20477;-62
2023/05/09 02:29:26;;;;;;;12.90;11.60;;;12.40;99.90;;;;;;6300889;28;20488;-62
2023/05/09 02:32:33;;;;;;;11.33;10.00;;;12.50;99.90;;;;;;6301153;28;20496;-62
2023/05/09 02:35:37;;;;;;;11.00;10.00;;;12.50;99.90;;;;;;6300731;28;20495;-62
2023/05/09 02:38:41;;;;;;;9.97;8.97;;;12.50;99.90;;;;;;6300299;28;20477;-62
2023/05/09 02:41:49;;;;;;;11.17;9.63;;;12.50;99.90;;;;;;6312357;28;20936;-62
2023/05/09 02:44:52;;;;;;;8.37;7.57;;;12.60;99.90;;;;;;6324526;28;20456;-63
2023/05/09 02:47:57;;;;;;;11.33;9.57;;;12.60;99.90;;;;;;6300271;28;20477;-62
2023/05/09 02:51:00;;;;;;;8.63;7.70;;;12.60;99.90;;;;;;6300543;28;20469;-62
2023/05/09 02:54:03;;;;;;;9.63;8.63;;;12.60;99.90;;;;;;6300496;28;20437;-62
2023/05/09 02:57:07;;;;;;;9.70;8.80;;;12.60;99.90;;;;;;6299888;28;20461;-62
2023/05/09 03:00:11;;;;;;;9.40;8.53;;;12.60;99.90;;;;;;6300248;28;20464;-62
2023/05/09 03:03:17;;;;;;;9.20;8.40;;;12.60;99.90;;;;;;6299239;28;20476;-62
2023/05/09 03:06:21;;;;;;;9.13;8.23;;;12.60;99.90;;;;;;6300581;28;20472;-62
2023/05/09 03:09:24;;;;;;;8.13;7.43;;;12.50;99.90;;;;;;6299799;28;21247;-62
2023/05/09 03:12:27;;;;;;;8.43;7.73;;;12.40;99.90;;;;;;6300346;28;20461;-62
2023/05/09 03:15:30;;;;;;;9.43;8.57;;;12.40;99.90;;;;;;6299749;28;20519;-62
2023/05/09 03:18:35;;;;;;;9.63;8.63;;;12.30;99.90;;;;;;6300152;28;20476;-62
2023/05/09 03:21:38;;;;;;;8.70;7.87;;;12.30;99.90;;;;;;6290860;28;20465;-62
2023/05/09 03:24:41;;;;;;;9.00;8.13;;;12.30;99.90;;;;;;6299748;28;20469;-62
2023/05/09 03:27:44;;;;;;;10.00;8.17;;;12.30;99.90;;;;;;6299629;28;20968;-62
2023/05/09 03:30:47;;;;;;;8.00;7.30;;;12.30;99.90;;;;;;6299402;28;20473;-62
2023/05/09 03:33:52;;;;;;;10.30;9.30;;;12.30;99.90;;;;;;6299354;28;20780;-62
2023/05/09 03:36:55;;;;;;;8.83;8.03;;;12.20;99.90;;;;;;6299616;28;20480;-62
2023/05/09 03:39:58;;;;;;;8.73;7.83;;;12.20;99.90;;;;;;6299510;28;20484;-62
2023/05/09 03:43:01;;;;;;;13.83;8.27;;;12.20;99.90;;;;;;6299449;28;20465;-62
2023/05/09 03:46:05;;;;;;;9.00;8.10;;;12.10;99.90;;;;;;6299621;28;20495;-62
2023/05/09 03:49:09;;;;;;;8.17;7.47;;;12.10;99.90;;;;;;6299082;28;20481;-62
2023/05/09 03:52:12;;;;;;;8.43;7.57;;;12.10;99.90;;;;;;6298494;28;20548;-62
2023/05/09 03:55:16;;;;;;;8.83;7.90;;;12.20;99.90;;;;;;6299224;28;20465;-63
2023/05/09 03:58:19;;;;;;;9.17;8.23;;;12.20;99.90;;;;;;6299480;28;20469;-62
2023/05/09 04:01:22;;;;;;;9.33;8.33;;;12.20;99.90;;;;;;6299462;28;20469;-62
2023/05/09 04:04:27;;;;;;;8.67;7.87;;;12.20;99.90;;;;;;6299322;28;20473;-62
2023/05/09 04:07:30;;;;;;;7.67;6.90;;;12.20;99.90;;;;;;6298857;28;20469;-62
2023/05/09 04:10:33;;;;;;;8.27;7.57;;;12.20;99.90;;;;;;6299399;28;20469;-62
2023/05/09 04:13:36;;;;;;;8.27;7.57;;;12.20;99.90;;;;;;6299272;28;20533;-62
2023/05/09 04:16:39;;;;;;;8.80;8.00;;;12.20;99.90;;;;;;6303891;28;20492;-62
2023/05/09 04:19:44;;;;;;;8.77;7.87;;;12.30;99.90;;;;;;6304273;28;20475;-62
2023/05/09 04:22:47;;;;;;;7.60;6.90;;;12.30;99.90;;;;;;6303526;28;20823;-62
2023/05/09 04:25:50;;;;;;;7.57;6.80;;;12.40;99.90;;;;;;6299466;28;20477;-62
2023/05/09 04:28:54;;;;;;;7.30;6.60;;;12.50;99.90;;;;;;6303666;28;20945;-63
2023/05/09 04:31:57;;;;;;;8.97;6.20;;;12.40;99.90;;;;;;6303847;28;20480;-63
2023/05/09 04:35:03;;;;;;;10.43;6.53;;;12.50;99.90;;;;;;6303781;28;21090;-63
2023/05/09 04:38:06;;;;;;;7.87;6.83;;;12.50;99.90;;;;;;6303688;28;20477;-63
2023/05/09 04:41:09;;;;;;;7.83;7.03;;;12.50;99.90;;;;;;6303397;28;20477;-63
2023/05/09 04:44:13;;;;;;;8.23;7.47;;;12.60;99.90;;;;;;6303284;28;20473;-63
2023/05/09 04:47:16;;;;;;;7.93;7.23;;;12.60;99.90;;;;;;6303316;28;20480;-63
2023/05/09 04:50:20;;;;;;;7.67;6.90;;;12.60;99.90;;;;;;6303121;28;20477;-63
2023/05/09 04:53:25;;;;;;;9.47;7.10;;;12.60;99.90;;;;;;6305781;28;20479;-63
2023/05/09 04:56:28;;;;;;;7.50;6.80;;;12.60;99.90;;;;;;6303229;28;20477;-62
2023/05/09 04:59:31;;;;;;;8.00;7.23;;;12.60;99.90;;;;;;6302868;28;20779;-63
2023/05/09 05:02:34;;;;;;;10.00;6.90;;;12.50;99.90;;;;;;6303081;28;20972;-62
2023/05/09 05:05:40;;;;;;;7.43;6.60;;;12.50;99.90;;;;;;6302381;28;20495;-62
2023/05/09 05:08:43;;;;;;;7.40;6.70;;;12.60;99.90;;;;;;6302952;28;20476;-62
2023/05/09 05:11:47;;;;;;;7.13;6.50;;;12.60;99.90;;;;;;6302829;28;20484;-63
2023/05/09 05:15:03;;;;;;;7.00;6.40;;;12.50;99.90;;;;;;6302330;28;20448;-63
2023/05/09 05:18:06;;;;;;;7.10;6.40;;;12.40;99.90;;;;;;6302708;28;20785;-62
2023/05/09 05:21:10;;;;;;;6.90;6.20;;;12.40;99.90;;;;;;6304583;28;20958;-62
2023/05/09 05:24:13;;;;;;;7.00;5.97;;;12.40;99.90;;;;;;6328287;28;20478;-63
2023/05/09 05:27:16;;;;;;;7.37;6.67;;;12.50;99.90;;;;;;6327202;28;20961;-63
2023/05/09 05:30:20;;;;;;;6.60;6.10;;;12.30;99.90;;;;;;6318682;28;20759;-63
2023/05/09 05:33:24;;;;;;;6.67;6.07;;;12.00;99.90;;;;;;6327450;28;20471;-63
2023/05/09 05:36:28;;;;;;;6.60;5.93;;;12.00;99.90;;;;;;6327524;28;20483;-63
2023/05/09 05:39:31;;;;;;;6.20;5.53;;;12.10;99.90;;;;;;6327758;28;20471;-63
2023/05/09 05:42:35;;;;;;;7.70;6.93;;;12.20;99.90;;;;;;6327763;28;20483;-63
2023/05/09 05:45:41;;;;;;;8.67;6.13;;;12.30;99.90;;;;;;6327593;28;20781;-63
2023/05/09 05:48:44;;;;;;;6.23;5.73;;;12.20;99.90;;;;;;6327310;28;20468;-63
2023/05/09 05:51:49;;;;;;;6.27;5.67;;;12.30;99.90;;;;;;6327581;28;20479;-63
2023/05/09 05:54:52;;;;;;;6.83;6.13;;;12.40;99.90;;;;;;6327353;28;20464;-64
2023/05/09 05:57:55;;;;;;;6.37;5.63;;;12.50;99.90;;;;;;6327027;28;20943;-63
2023/05/09 06:00:58;;;;;;;7.47;6.70;;;12.70;99.90;;;;;;6326634;28;20472;-63
2023/05/09 06:04:01;;;;;;;7.37;5.23;;;12.80;99.90;;;;;;6326969;28;20483;-63
2023/05/09 06:07:06;;;;;;;6.23;5.60;;;12.90;99.90;;;;;;6326481;28;20773;-63
2023/05/09 06:10:10;;;;;;;6.30;5.80;;;13.00;99.90;;;;;;6326441;28;21025;-63
2023/05/09 06:13:13;;;;;;;9.77;8.23;;;13.10;99.90;;;;;;6326304;28;20807;-63
2023/05/09 06:16:16;;;;;;;6.73;5.40;;;13.10;99.90;;;;;;6325529;28;20973;-63
2023/05/09 06:19:22;;;;;;;7.70;5.80;;;13.10;99.90;;;;;;6326383;28;20465;-63
2023/05/09 06:22:26;;;;;;;6.27;5.67;;;13.20;99.90;;;;;;6326485;28;20838;-62
2023/05/09 06:25:30;;;;;;;5.73;5.23;;;13.20;99.90;;;;;;6326104;28;20968;-62
2023/05/09 06:28:33;;;;;;;6.23;5.73;;;13.30;99.90;;;;;;6325843;28;20947;-62
2023/05/09 06:31:37;;;;;;;6.57;5.97;;;13.50;99.90;;;;;;6326225;28;20468;-62
2023/05/09 06:34:41;;;;;;;6.63;6.03;;;13.50;99.90;;;;;;6321209;28;20464;-62
2023/05/09 06:37:46;;;;;;;5.80;5.30;;;13.60;99.90;;;;;;6326280;28;20468;-62
2023/05/09 06:40:51;;;;;;;6.87;5.80;;;13.80;99.90;;;;;;6325027;28;21005;-62
2023/05/09 06:43:54;;;;;;;8.40;5.57;;;14.00;99.90;;;;;;6325689;28;20472;-63
2023/05/09 06:46:57;;;;;;;5.97;5.47;;;14.30;99.30;;;;;;6325664;28;20480;-62
2023/05/09 06:50:02;;;;;;;10.47;5.67;;;14.00;99.10;;;;;;6325941;28;20495;-63
2023/05/09 06:53:07;;;;;;;5.17;4.77;;;14.30;99.50;;;;;;6325653;28;20468;-62
2023/05/09 06:56:10;;;;;;;6.50;5.77;;;14.50;98.90;;;;;;6325469;28;20816;-62
2023/05/09 06:59:15;;;;;;;5.50;5.10;;;14.70;98.20;;;;;;6325327;28;20479;-62
2023/05/09 07:02:18;;;;;;;6.40;5.77;;;14.90;98.00;;;;;;6325497;28;20479;-62
2023/05/09 07:05:21;;;;;;;6.70;5.27;;;15.00;97.60;;;;;;6325751;28;20476;-62
2023/05/09 07:08:26;;;;;;;7.40;5.67;;;15.00;97.40;;;;;;6325263;28;20971;-62
2023/05/09 07:11:33;;;;;;;5.50;5.00;;;15.10;97.30;;;;;;6325415;28;20537;-62
2023/05/09 07:14:37;;;;;;;9.93;5.67;;;15.20;97.10;;;;;;6324011;28;20487;-62
2023/05/09 07:17:40;;;;;;;6.70;5.10;;;15.40;97.10;;;;;;6279341;28;20493;-62
2023/05/09 07:20:43;;;;;;;5.67;5.17;;;15.50;96.50;;;;;;6300546;28;20465;-62
2023/05/09 07:23:48;;;;;;;6.10;5.60;;;15.60;96.10;;;;;;6325754;28;20472;-62
2023/05/09 07:26:51;;;;;;;4.97;4.57;;;15.70;95.60;;;;;;6322883;28;20460;-62
2023/05/09 07:29:54;;;;;;;5.40;4.90;;;15.60;95.40;;;;;;6313096;28;20763;-62
2023/05/09 07:32:57;;;;;;;5.83;5.10;;;15.70;95.60;;;;;;6313010;28;20744;-62
2023/05/09 07:36:01;;;;;;;6.20;5.40;;;15.80;95.00;;;;;;6311818;28;20476;-64
2023/05/09 07:39:06;;;;;;;6.77;5.57;;;16.00;95.10;;;;;;6322847;28;20448;-66
2023/05/09 07:42:10;;;;;;;5.67;5.23;;;16.30;96.80;;;;;;6321753;28;20457;-66
2023/05/09 07:45:13;;;;;;;5.97;5.47;;;16.50;96.30;;;;;;6324884;28;20464;-65
2023/05/09 07:48:16;;;;;;;7.80;5.27;;;16.80;95.50;;;;;;6325035;28;20883;-66
2023/05/09 07:51:19;;;;;;;6.50;5.60;;;17.20;95.70;;;;;;6324783;28;20460;-66
2023/05/09 07:54:24;;;;;;;5.53;5.07;;;17.50;93.70;;;;;;6324943;28;20471;-66
2023/05/09 07:57:27;;;;;;;6.77;5.40;;;17.40;92.90;;;;;;6324110;28;20563;-68
2023/05/09 08:00:30;;;;;;;5.57;5.07;;;17.40;93.10;;;;;;6321155;28;20465;-66
2023/05/09 08:03:33;;;;;;;8.03;5.73;;;17.80;92.50;;;;;;6312448;28;20959;-66
2023/05/09 08:06:37;;;;;;;5.27;4.87;;;18.20;91.20;;;;;;6320060;27;20476;-66
2023/05/09 08:09:41;;;;;;;6.67;5.07;;;18.10;90.60;;;;;;6313139;28;20468;-68
2023/05/09 08:12:44;;;;;;;8.40;6.90;;;18.50;89.50;;;;;;6314395;28;20792;-68
2023/05/09 08:15:48;;;;;;;5.73;5.23;;;18.60;89.30;;;;;;6315793;28;20232;-67
2023/05/09 08:18:51;;;;;;;5.70;5.10;;;18.60;88.80;;;;;;6307753;28;20225;-67
2023/05/09 08:21:54;;;;;;;6.80;5.90;;;18.80;88.10;;;;;;6318986;28;20655;-68
2023/05/09 08:24:59;;;;;;;9.20;5.87;;;18.50;87.30;;;;;;6325378;28;20225;-65
2023/05/09 08:28:02;;;;;;;6.33;5.63;;;18.40;87.40;;;;;;6324377;28;20234;-64
2023/05/09 08:31:05;;;;;;;6.43;5.93;;;18.30;88.00;;;;;;6324071;28;20226;-63
2023/05/09 08:34:08;;;;;;;7.10;6.40;;;17.70;89.70;;;;;;6324551;28;20569;-64
2023/05/09 08:37:11;;;;;;;6.57;5.97;;;17.50;90.30;;;;;;6324543;28;20464;-63
2023/05/09 08:40:19;;;;;;;15.03;7.40;;;17.70;90.30;;;;;;6325510;28;20484;-64
2023/05/09 08:43:24;;;;;;;7.83;6.30;;;17.70;89.90;;;;;;6325449;28;20484;-65
2023/05/09 08:46:32;;;;;;;7.30;6.20;;;17.60;90.10;;;;;;6324067;28;20472;-64
2023/05/09 08:49:36;;;;;;;7.00;5.97;;;17.50;90.30;;;;;;6324454;28;20460;-65
2023/05/09 08:52:39;;;;;;;7.73;6.87;;;17.60;90.20;;;;;;6324349;28;20468;-64
2023/05/09 08:55:44;;;;;;;8.43;7.67;;;17.30;90.30;;;;;;6317980;28;20473;-63
2023/05/09 08:58:47;;;;;;;7.40;6.80;;;17.00;91.00;;;;;;6311809;28;20886;-63
2023/05/09 09:01:53;;;;;;;7.70;6.47;;;17.00;91.20;;;;;;6310807;28;20464;-63
2023/05/09 09:04:56;;;;;;;7.00;6.37;;;17.20;91.10;;;;;;6316210;28;20476;-63
2023/05/09 09:08:00;;;;;;;6.73;6.23;;;17.30;90.90;;;;;;6308724;28;20484;-63
2023/05/09 09:11:05;;;;;;;6.77;6.13;;;17.30;91.20;;;;;;6302552;28;20547;-64
2023/05/09 09:14:12;;;;;;;6.30;5.73;;;17.40;91.30;;;;;;6322054;28;20551;-65
2023/05/09 09:17:20;;;;;;;8.90;5.67;;;17.70;91.40;;;;;;6327820;28;20487;-65
2023/05/09 09:20:25;;;;;;;7.27;6.53;;;18.10;90.40;;;;;;6327412;28;20818;-64
2023/05/09 09:23:30;;;;;;;7.60;6.90;;;18.20;90.00;;;;;;6327207;28;20238;-65
2023/05/09 09:26:34;;;;;;;6.63;6.03;;;18.10;90.50;;;;;;6327109;28;20469;-64
2023/05/09 09:29:38;;;;;;;6.97;6.40;;;17.90;90.30;;;;;;6327065;28;20472;-64
2023/05/09 09:32:44;;;;;;;9.23;6.97;;;17.80;90.40;;;;;;6327253;28;20971;-64
2023/05/09 09:35:48;;;;;;;7.83;7.00;;;17.70;90.40;;;;;;6327156;28;20468;-63
2023/05/09 09:38:59;;;;;;;5.43;5.00;;;17.30;90.60;;;;;;6326618;28;20461;-65
2023/05/09 09:42:11;;;;;;;6.63;6.03;;;17.40;91.10;;;;;;6327618;28;20469;-63
2023/05/09 09:45:17;;;;;;;6.80;6.20;;;17.80;90.80;;;;;;6322981;28;20800;-65
2023/05/09 09:48:24;;;;;;;8.60;6.80;;;17.90;90.60;;;;;;6327655;28;20475;-64
2023/05/09 09:51:28;;;;;;;6.87;6.20;;;17.90;90.30;;;;;;6327141;28;20472;-66
2023/05/09 09:54:32;;;;;;;7.77;7.10;;;17.80;90.50;;;;;;6326778;28;20935;-64
2023/05/09 09:57:40;;;;;;;7.50;6.80;;;17.90;90.40;;;;;;6326887;28;20499;-64
2023/05/09 10:00:44;;;;;;;6.87;6.27;;;17.70;90.50;;;;;;6327097;28;20465;-64
2023/05/09 10:03:47;;;;;;;7.73;6.37;;;17.80;90.50;;;;;;6304209;28;20508;-64
2023/05/09 10:06:54;;;;;;;5.90;5.40;;;17.70;90.50;;;;;;6318085;28;20479;-64
2023/05/09 10:09:57;;;;;;;7.10;6.13;;;17.80;90.50;;;;;;6325962;28;21050;-65
2023/05/09 10:13:03;;;;;;;7.70;7.00;;;17.80;90.30;;;;;;6316229;27;20840;-62
2023/05/09 10:16:09;;;;;;;8.97;6.40;;;17.70;90.30;;;;;;6301219;28;20959;-62
2023/05/09 10:19:13;;;;;;;8.23;7.50;;;17.60;90.40;;;;;;6301204;28;20499;-62
2023/05/09 10:22:19;;;;;;;7.70;6.90;;;17.80;90.60;;;;;;6300465;28;20465;-65
2023/05/09 10:25:27;;;;;;;9.07;7.73;;;18.30;90.00;;;;;;6300821;28;20694;-64
2023/05/09 10:28:33;;;;;;;7.23;6.53;;;18.50;87.80;;;;;;6306240;28;20242;-63
2023/05/09 10:31:39;;;;;;;7.03;6.40;;;18.70;87.90;;;;;;6310265;28;20245;-63
2023/05/09 10:34:47;;;;;;;8.23;7.00;;;18.80;87.40;;;;;;6306587;28;20238;-62
2023/05/09 10:37:52;;;;;;;6.83;6.23;;;18.90;87.10;;;;;;6297192;28;20305;-63
2023/05/09 10:40:56;;;;;;;7.07;6.57;;;18.90;87.10;;;;;;6299233;28;20242;-63
2023/05/09 10:44:01;;;;;;;6.57;5.97;;;18.70;87.80;;;;;;6275528;28;20236;-63
2023/05/09 10:47:04;;;;;;;7.03;6.33;;;18.80;87.30;;;;;;6277676;28;20537;-63
2023/05/09 10:50:09;;;;;;;6.70;6.20;;;18.80;87.10;;;;;;6294814;28;20227;-63
2023/05/09 10:53:15;;;;;;;8.70;7.80;;;18.70;87.50;;;;;;6299513;28;20226;-63
2023/05/09 10:56:26;;;;;;;10.03;7.57;;;18.60;87.90;;;;;;6297279;28;20246;-63
2023/05/09 10:59:36;;;;;;;8.10;7.43;;;18.60;88.90;;;;;;6299177;28;20706;-63
2023/05/09 11:02:39;;;;;;;8.30;7.60;;;18.70;87.70;;;;;;6298568;28;20237;-63
2023/05/09 11:05:43;;;;;;;7.67;6.90;;;18.60;87.90;;;;;;6298718;28;20231;-63
2023/05/09 11:08:47;;;;;;;8.07;7.37;;;19.10;87.70;;;;;;6299657;28;20226;-63
2023/05/09 11:11:54;;;;;;;7.10;6.40;;;19.70;85.80;;;;;;6297983;28;20230;-64
2023/05/09 11:15:06;;;;;;;10.97;7.53;;;19.90;85.00;;;;;;6274883;28;20650;-64
2023/05/09 11:18:10;;;;;;;8.63;7.90;;;20.20;83.40;;;;;;6299618;28;20206;-63
2023/05/09 11:21:14;;;;;;;8.80;8.00;;;20.30;82.50;;;;;;6299689;28;20273;-64
2023/05/09 11:24:18;;;;;;;8.70;8.00;;;20.50;81.40;;;;;;6298966;28;20223;-64
2023/05/09 11:27:23;;;;;;;8.27;7.47;;;20.60;81.10;;;;;;6294795;28;20561;-64
2023/05/09 11:30:38;;;;;;;9.00;8.10;;;20.70;80.40;;;;;;6279211;28;20759;-64
2023/05/09 11:33:43;;;;;;;7.60;7.00;;;20.70;80.10;;;;;;6299231;28;20226;-63
2023/05/09 11:36:48;;;;;;;9.77;8.90;;;20.70;80.60;;;;;;6299358;28;20298;-64
2023/05/09 11:39:59;;;;;;;9.00;8.20;;;20.70;79.90;;;;;;6298815;28;20245;-62
2023/05/09 11:43:03;;;;;;;8.03;7.23;;;20.90;80.40;;;;;;6299262;28;20687;-62
2023/05/09 11:46:08;;;;;;;8.90;7.87;;;21.20;78.50;;;;;;6299000;28;20231;-62
2023/05/09 11:49:12;;;;;;;9.00;8.27;;;21.50;77.40;;;;;;6298992;28;20307;-62
2023/05/09 11:52:15;;;;;;;9.73;8.67;;;22.00;77.20;;;;;;6298830;28;20230;-61
2023/05/09 11:55:20;;;;;;;10.13;9.33;;;21.60;76.20;;;;;;6285160;28;20249;-63
2023/05/09 11:58:24;;;;;;;8.90;7.97;;;21.40;75.90;;;;;;6298027;28;20380;-63
2023/05/09 12:01:29;;;;;;;8.33;7.60;;;21.20;77.60;;;;;;6298323;28;20231;-64
2023/05/09 12:04:33;;;;;;;9.93;9.03;;;21.50;77.40;;;;;;6299393;28;20697;-63
2023/05/09 12:07:38;;;;;;;9.80;8.93;;;21.60;76.30;;;;;;6320667;28;20236;-64
2023/05/09 12:10:41;;;;;;;9.40;8.70;;;21.50;76.10;;;;;;6318960;28;20654;-63
2023/05/09 12:13:46;;;;;;;10.83;9.73;;;21.10;76.10;;;;;;6323478;28;20238;-62
2023/05/09 12:16:51;;;;;;;9.30;8.20;;;20.40;77.80;;;;;;6322108;28;20218;-63
2023/05/09 12:19:54;;;;;;;8.83;7.80;;;19.90;79.60;;;;;;6321901;28;20237;-63
2023/05/09 12:22:57;;;;;;;8.63;7.83;;;19.70;80.30;;;;;;6319917;28;20658;-63
2023/05/09 12:26:00;;;;;;;9.37;8.60;;;19.70;81.10;;;;;;6322239;28;20241;-63
2023/05/09 12:29:04;;;;;;;9.63;8.73;;;20.10;81.10;;;;;;6301387;28;20302;-62
2023/05/09 12:32:09;;;;;;;9.23;8.40;;;20.30;81.20;;;;;;6298189;28;20227;-64
2023/05/09 12:35:12;;;;;;;9.57;8.20;;;20.30;80.70;;;;;;6299318;28;20241;-64
2023/05/09 12:38:21;;;;;;;10.00;9.00;;;20.40;80.30;;;;;;6303492;28;20321;-65
2023/05/09 12:41:24;;;;;;;8.93;8.00;;;20.30;79.80;;;;;;6303105;28;20300;-65
2023/05/09 12:44:30;;;;;;;8.07;7.27;;;20.10;79.50;;;;;;6302595;28;20257;-64
2023/05/09 12:47:37;;;;;;;8.73;7.93;;;20.20;79.80;;;;;;6303357;28;20241;-65
2023/05/09 12:50:46;;;;;;;10.33;9.50;;;20.30;80.20;;;;;;6303060;28;20231;-65
2023/05/09 12:53:50;;;;;;;7.47;6.77;;;20.20;80.00;;;;;;6302987;28;20556;-65
2023/05/09 12:56:55;;;;;;;8.63;7.93;;;20.50;80.50;;;;;;6302359;28;20258;-66
2023/05/09 12:59:59;;;;;;;8.33;7.40;;;20.60;78.50;;;;;;6302906;28;20224;-66
2023/05/09 13:03:04;;;;;;;7.87;7.10;;;20.70;78.70;;;;;;6302959;28;20264;-64
2023/05/09 13:06:12;;;;;;;9.17;7.33;;;20.80;77.10;;;;;;6314180;28;20315;-65
2023/05/09 13:09:16;;;;;;;7.13;6.57;;;20.60;77.50;;;;;;6328035;28;20226;-64
2023/05/09 13:12:20;;;;;;;9.50;8.37;;;20.50;77.50;;;;;;6324179;27;20231;-65
2023/05/09 13:15:25;;;;;;;8.07;7.27;;;20.50;75.00;;;;;;6302682;28;20233;-64
2023/05/09 13:18:30;;;;;;;6.87;6.17;;;20.50;76.10;;;;;;6302677;28;20234;-65
2023/05/09 13:21:33;;;;;;;7.60;6.90;;;20.90;75.60;;;;;;6302693;28;20233;-64
2023/05/09 13:24:36;;;;;;;7.30;6.70;;;21.10;75.30;;;;;;6302707;28;20219;-64
2023/05/09 13:27:39;;;;;;;8.37;7.57;;;20.80;74.60;;;;;;6300930;28;20230;-62
2023/05/09 13:30:44;;;;;;;5.93;5.33;;;20.20;74.60;;;;;;6308857;28;20253;-62
2023/05/09 13:33:49;;;;;;;6.50;5.90;;;20.10;74.90;;;;;;6327237;28;20535;-62
2023/05/09 13:36:54;;;;;;;8.10;7.50;;;20.10;75.60;;;;;;6327344;27;20298;-63
2023/05/09 13:39:57;;;;;;;7.47;6.77;;;20.00;75.30;;;;;;6317705;28;20237;-63
2023/05/09 13:43:00;;;;;;;9.17;7.03;;;20.30;75.80;;;;;;6311371;28;20222;-64
2023/05/09 13:46:03;;;;;;;8.97;7.90;;;20.50;74.90;;;;;;6326912;28;20328;-64
2023/05/09 13:49:08;;;;;;;7.80;7.20;;;20.40;74.90;;;;;;6326373;28;20299;-64
2023/05/09 13:52:13;;;;;;;7.10;6.50;;;20.30;74.70;;;;;;6326383;28;20233;-64
2023/05/09 13:55:17;;;;;;;9.23;7.17;;;20.30;75.00;;;;;;6326819;28;20676;-63
2023/05/09 13:58:20;;;;;;;8.10;7.27;;;20.50;74.60;;;;;;6326113;27;20234;-63
2023/05/09 14:01:24;;;;;;;8.37;7.17;;;20.30;74.10;;;;;;6322480;28;20230;-63
2023/05/09 14:04:30;;;;;;;6.93;5.90;;;20.30;74.80;;;;;;6326519;28;20254;-63
2023/05/09 14:07:33;;;;;;;6.57;5.97;;;20.10;72.40;;;;;;6326786;28;20230;-63
2023/05/09 14:10:39;;;;;;;7.10;5.30;;;19.70;71.60;;;;;;6326476;28;20697;-64
2023/05/09 14:13:42;;;;;;;7.20;6.50;;;19.80;72.40;;;;;;6312082;27;20905;-64
2023/05/09 14:16:45;;;;;;;6.83;6.13;;;19.90;74.10;;;;;;6302806;28;20230;-64
2023/05/09 14:19:50;;;;;;;9.03;6.50;;;19.70;74.10;;;;;;6302600;28;20675;-64
2023/05/09 14:22:53;;;;;;;7.93;7.13;;;19.70;74.60;;;;;;6303649;28;20716;-64
2023/05/09 14:25:57;;;;;;;8.33;7.17;;;19.50;74.90;;;;;;6306363;28;20239;-64
2023/05/09 14:29:00;;;;;;;7.53;6.83;;;19.30;77.60;;;;;;6304060;28;20230;-63
2023/05/09 14:32:03;;;;;;;6.30;5.70;;;19.40;77.60;;;;;;6303446;28;20241;-63
2023/05/09 14:35:09;;;;;;;6.87;5.80;;;19.70;77.90;;;;;;6300490;28;20234;-64
2023/05/09 14:38:12;;;;;;;9.97;5.87;;;19.60;78.30;;;;;;6300388;28;20311;-62
2023/05/09 14:41:16;;;;;;;5.90;5.40;;;19.60;78.10;;;;;;6300334;28;20329;-62
2023/05/09 14:44:23;;;;;;;4.83;4.43;;;19.70;78.50;;;;;;6300133;28;20260;-62
2023/05/09 14:47:27;;;;;;;4.80;4.40;;;19.90;77.70;;;;;;6300119;28;20671;-62
2023/05/09 14:50:32;;;;;;;6.67;4.70;;;19.30;76.20;;;;;;6300020;28;20234;-61
2023/05/09 14:53:40;;;;;;;5.27;4.83;;;19.20;76.80;;;;;;6300070;28;20227;-61
2023/05/09 14:56:43;;;;;;;5.47;4.90;;;18.90;77.10;;;;;;6299730;28;20234;-63
2023/05/09 14:59:46;;;;;;;6.53;4.60;;;18.60;78.40;;;;;;6291667;28;20675;-63
2023/05/09 15:02:50;;;;;;;5.20;4.70;;;18.40;79.50;;;;;;6290941;28;20219;-64
2023/05/09 15:05:54;;;;;;;5.33;4.83;;;18.20;80.40;;;;;;6272552;28;20853;-64
2023/05/09 15:08:58;;;;;;;6.70;4.80;;;17.80;81.80;;;;;;6299120;28;20450;-64
2023/05/09 15:12:01;;;;;;;5.80;5.30;;;17.40;83.50;;;;;;6299482;28;20448;-63
2023/05/09 15:15:15;;;;;;;5.93;5.40;;;17.20;84.80;;;;;;6299350;28;20559;-63
2023/05/09 15:18:20;;;;;;;5.50;4.90;;;17.30;85.20;;;;;;6275265;28;20455;-63
2023/05/09 15:21:27;;;;;;;7.07;5.77;;;17.20;85.70;;;;;;6274679;28;20948;-63
2023/05/09 15:24:30;;;;;;;5.57;5.07;;;17.10;86.40;;;;;;6274737;28;20466;-62
2023/05/09 15:27:34;;;;;;;6.57;4.90;;;17.00;86.90;;;;;;6274181;28;20466;-63
2023/05/09 15:30:39;;;;;;;5.17;4.67;;;17.00;87.50;;;;;;6275372;28;20470;-65
2023/05/09 15:33:43;;;;;;;4.60;4.10;;;17.10;86.80;;;;;;6287454;28;20530;-65
2023/05/09 15:36:47;;;;;;;5.77;4.83;;;17.20;87.40;;;;;;6286345;28;20531;-65
2023/05/09 15:39:50;;;;;;;7.07;4.90;;;17.30;87.80;;;;;;6299401;28;20465;-64
2023/05/09 15:43:03;;;;;;;6.50;5.10;;;17.30;88.00;;;;;;6283956;28;20623;-64
2023/05/09 15:46:10;;;;;;;6.13;5.63;;;17.20;89.00;;;;;;6297225;28;20484;-64
2023/05/09 15:49:13;;;;;;;5.87;5.30;;;17.10;88.50;;;;;;6298914;28;20476;-64
2023/05/09 15:52:18;;;;;;;6.30;5.67;;;17.00;89.70;;;;;;6298941;28;20469;-63
2023/05/09 15:55:21;;;;;;;7.07;5.73;;;16.80;89.80;;;;;;6298839;28;20465;-64